sensor_id;sensor_type;location;lat;lon;timestamp;P1;durP1;ratioP1;P2;durP2;ratioP2
52848;SDS011;38714;53.180;5.812;2022-12-29T00:01:32;4.82;;;3.97;;
52848;SDS011;38714;53.180;5.812;2022-12-29T00:03:58;5.72;;;4.57;;
52848;SDS011;38714;53.180;5.812;2022-12-29T00:06:24;7.78;;;3.67;;
52848;SDS011;38714;53.180;5.812;2022-12-29T00:08:50;6.72;;;4.13;;
52848;SDS011;38714;53.180;5.812;2022-12-29T00:11:19;5.30;;;4.45;;
52848;SDS011;38714;53.180;5.812;2022-12-29T00:13:47;5.50;;;4.53;;
52848;SDS011;38714;53.180;5.812;2022-12-29T00:16:32;7.82;;;5.57;;
52848;SDS011;38714;53.180;5.812;2022-12-29T00:18:59;5.28;;;4.30;;
52848;SDS011;38714;53.180;5.812;2022-12-29T00:21:25;5.53;;;4.63;;
52848;SDS011;38714;53.180;5.812;2022-12-29T00:24:17;7.82;;;4.30;;
52848;SDS011;38714;53.180;5.812;2022-12-29T00:26:57;5.13;;;4.18;;
52848;SDS011;38714;53.180;5.812;2022-12-29T00:29:45;8.55;;;5.05;;
52848;SDS011;38714;53.180;5.812;2022-12-29T00:32:29;6.38;;;5.78;;
52848;SDS011;38714;53.180;5.812;2022-12-29T00:35:18;5.50;;;4.70;;
52848;SDS011;38714;53.180;5.812;2022-12-29T00:37:48;5.55;;;5.05;;
52848;SDS011;38714;53.180;5.812;2022-12-29T00:40:33;12.02;;;4.80;;
52848;SDS011;38714;53.180;5.812;2022-12-29T00:43:17;6.90;;;5.13;;
52848;SDS011;38714;53.180;5.812;2022-12-29T00:46:02;6.93;;;5.32;;
52848;SDS011;38714;53.180;5.812;2022-12-29T00:48:27;12.43;;;4.38;;
52848;SDS011;38714;53.180;5.812;2022-12-29T00:51:12;6.05;;;4.93;;
52848;SDS011;38714;53.180;5.812;2022-12-29T00:53:38;5.05;;;4.55;;
52848;SDS011;38714;53.180;5.812;2022-12-29T00:56:03;5.88;;;5.18;;
52848;SDS011;38714;53.180;5.812;2022-12-29T00:58:29;8.20;;;5.20;;
52848;SDS011;38714;53.180;5.812;2022-12-29T01:01:05;5.55;;;4.68;;
52848;SDS011;38714;53.180;5.812;2022-12-29T01:03:33;6.97;;;6.38;;
52848;SDS011;38714;53.180;5.812;2022-12-29T01:06:00;7.13;;;4.60;;
52848;SDS011;38714;53.180;5.812;2022-12-29T01:08:28;5.95;;;4.53;;
52848;SDS011;38714;53.180;5.812;2022-12-29T01:11:04;8.30;;;5.28;;
52848;SDS011;38714;53.180;5.812;2022-12-29T01:13:31;5.10;;;4.57;;
52848;SDS011;38714;53.180;5.812;2022-12-29T01:15:57;7.07;;;5.05;;
52848;SDS011;38714;53.180;5.812;2022-12-29T01:18:23;7.22;;;4.82;;
52848;SDS011;38714;53.180;5.812;2022-12-29T01:20:50;6.45;;;4.18;;
52848;SDS011;38714;53.180;5.812;2022-12-29T01:23:15;5.07;;;4.30;;
52848;SDS011;38714;53.180;5.812;2022-12-29T01:25:41;6.70;;;4.95;;
52848;SDS011;38714;53.180;5.812;2022-12-29T01:28:07;9.93;;;4.38;;
52848;SDS011;38714;53.180;5.812;2022-12-29T01:30:36;5.70;;;4.30;;
52848;SDS011;38714;53.180;5.812;2022-12-29T01:33:02;4.80;;;4.35;;
52848;SDS011;38714;53.180;5.812;2022-12-29T01:35:28;7.55;;;4.22;;
52848;SDS011;38714;53.180;5.812;2022-12-29T01:37:53;5.95;;;5.35;;
52848;SDS011;38714;53.180;5.812;2022-12-29T01:40:19;4.60;;;3.90;;
52848;SDS011;38714;53.180;5.812;2022-12-29T01:42:45;5.25;;;4.28;;
52848;SDS011;38714;53.180;5.812;2022-12-29T01:45:11;7.18;;;4.07;;
52848;SDS011;38714;53.180;5.812;2022-12-29T01:47:43;6.03;;;3.22;;
52848;SDS011;38714;53.180;5.812;2022-12-29T01:50:32;5.43;;;4.82;;
52848;SDS011;38714;53.180;5.812;2022-12-29T01:53:03;5.22;;;3.78;;
52848;SDS011;38714;53.180;5.812;2022-12-29T01:55:31;8.63;;;5.65;;
52848;SDS011;38714;53.180;5.812;2022-12-29T01:58:01;6.53;;;5.15;;
52848;SDS011;38714;53.180;5.812;2022-12-29T02:00:29;8.98;;;6.10;;
52848;SDS011;38714;53.180;5.812;2022-12-29T02:02:55;8.68;;;5.05;;
52848;SDS011;38714;53.180;5.812;2022-12-29T02:05:23;6.43;;;5.00;;
52848;SDS011;38714;53.180;5.812;2022-12-29T02:07:55;6.85;;;4.47;;
52848;SDS011;38714;53.180;5.812;2022-12-29T02:10:21;4.97;;;4.18;;
52848;SDS011;38714;53.180;5.812;2022-12-29T02:12:49;5.78;;;4.03;;
52848;SDS011;38714;53.180;5.812;2022-12-29T02:15:16;7.60;;;4.70;;
52848;SDS011;38714;53.180;5.812;2022-12-29T02:17:53;7.10;;;3.65;;
52848;SDS011;38714;53.180;5.812;2022-12-29T02:23:31;4.57;;;1.90;;
52848;SDS011;38714;53.180;5.812;2022-12-29T02:26:30;2.65;;;1.60;;
52848;SDS011;38714;53.180;5.812;2022-12-29T02:31:46;1.45;;;1.27;;
52848;SDS011;38714;53.180;5.812;2022-12-29T02:40:06;0.43;;;0.43;;
52848;SDS011;38714;53.180;5.812;2022-12-29T02:42:46;0.77;;;0.77;;
52848;SDS011;38714;53.180;5.812;2022-12-29T02:45:26;0.82;;;0.50;;
52848;SDS011;38714;53.180;5.812;2022-12-29T02:50:34;1.45;;;1.27;;
52848;SDS011;38714;53.180;5.812;2022-12-29T02:53:24;1.13;;;0.90;;
52848;SDS011;38714;53.180;5.812;2022-12-29T02:56:10;1.60;;;0.70;;
52848;SDS011;38714;53.180;5.812;2022-12-29T02:58:35;1.25;;;0.80;;
52848;SDS011;38714;53.180;5.812;2022-12-29T03:09:41;2.90;;;2.17;;
52848;SDS011;38714;53.180;5.812;2022-12-29T03:12:21;7.30;;;2.40;;
52848;SDS011;38714;53.180;5.812;2022-12-29T03:15:00;3.08;;;2.45;;
52848;SDS011;38714;53.180;5.812;2022-12-29T03:17:53;3.83;;;2.30;;
52848;SDS011;38714;53.180;5.812;2022-12-29T03:20:30;7.15;;;2.38;;
52848;SDS011;38714;53.180;5.812;2022-12-29T03:23:03;5.03;;;3.15;;
52848;SDS011;38714;53.180;5.812;2022-12-29T03:25:35;4.75;;;2.25;;
52848;SDS011;38714;53.180;5.812;2022-12-29T03:28:09;7.78;;;2.25;;
52848;SDS011;38714;53.180;5.812;2022-12-29T03:30:38;7.03;;;2.58;;
52848;SDS011;38714;53.180;5.812;2022-12-29T03:33:07;14.82;;;2.08;;
52848;SDS011;38714;53.180;5.812;2022-12-29T03:35:36;11.55;;;2.78;;
52848;SDS011;38714;53.180;5.812;2022-12-29T03:38:14;4.25;;;2.08;;
52848;SDS011;38714;53.180;5.812;2022-12-29T03:40:41;5.38;;;2.38;;
52848;SDS011;38714;53.180;5.812;2022-12-29T03:43:09;11.40;;;2.75;;
52848;SDS011;38714;53.180;5.812;2022-12-29T03:45:37;7.45;;;3.67;;
52848;SDS011;38714;53.180;5.812;2022-12-29T03:48:03;5.25;;;1.42;;
52848;SDS011;38714;53.180;5.812;2022-12-29T03:50:29;4.40;;;1.38;;
52848;SDS011;38714;53.180;5.812;2022-12-29T03:52:54;2.72;;;1.73;;
52848;SDS011;38714;53.180;5.812;2022-12-29T03:55:20;5.00;;;1.60;;
52848;SDS011;38714;53.180;5.812;2022-12-29T03:57:45;5.93;;;1.10;;
52848;SDS011;38714;53.180;5.812;2022-12-29T04:00:11;10.80;;;1.42;;
52848;SDS011;38714;53.180;5.812;2022-12-29T04:02:38;6.97;;;2.30;;
52848;SDS011;38714;53.180;5.812;2022-12-29T04:05:03;8.10;;;1.20;;
52848;SDS011;38714;53.180;5.812;2022-12-29T04:07:29;1.10;;;1.00;;
52848;SDS011;38714;53.180;5.812;2022-12-29T04:09:55;2.25;;;1.30;;
52848;SDS011;38714;53.180;5.812;2022-12-29T04:12:20;3.42;;;1.40;;
52848;SDS011;38714;53.180;5.812;2022-12-29T04:14:46;6.10;;;2.15;;
52848;SDS011;38714;53.180;5.812;2022-12-29T04:17:12;3.03;;;1.50;;
52848;SDS011;38714;53.180;5.812;2022-12-29T04:19:37;4.40;;;1.25;;
52848;SDS011;38714;53.180;5.812;2022-12-29T04:22:03;4.65;;;1.40;;
52848;SDS011;38714;53.180;5.812;2022-12-29T04:24:28;3.72;;;1.73;;
52848;SDS011;38714;53.180;5.812;2022-12-29T04:26:54;3.15;;;1.30;;
52848;SDS011;38714;53.180;5.812;2022-12-29T04:29:20;3.60;;;2.22;;
52848;SDS011;38714;53.180;5.812;2022-12-29T04:31:45;7.82;;;3.38;;
52848;SDS011;38714;53.180;5.812;2022-12-29T04:34:11;12.90;;;4.05;;
52848;SDS011;38714;53.180;5.812;2022-12-29T04:36:36;10.77;;;2.72;;
52848;SDS011;38714;53.180;5.812;2022-12-29T04:39:03;15.05;;;2.42;;
52848;SDS011;38714;53.180;5.812;2022-12-29T04:41:30;12.43;;;3.08;;
52848;SDS011;38714;53.180;5.812;2022-12-29T04:43:55;6.70;;;3.30;;
52848;SDS011;38714;53.180;5.812;2022-12-29T04:46:21;13.05;;;3.97;;
52848;SDS011;38714;53.180;5.812;2022-12-29T04:48:47;7.93;;;2.78;;
52848;SDS011;38714;53.180;5.812;2022-12-29T04:51:12;12.88;;;3.50;;
52848;SDS011;38714;53.180;5.812;2022-12-29T04:53:38;6.18;;;3.00;;
52848;SDS011;38714;53.180;5.812;2022-12-29T04:56:04;10.35;;;2.67;;
52848;SDS011;38714;53.180;5.812;2022-12-29T04:58:29;22.85;;;3.55;;
52848;SDS011;38714;53.180;5.812;2022-12-29T05:00:55;5.70;;;3.40;;
52848;SDS011;38714;53.180;5.812;2022-12-29T05:03:21;27.73;;;3.88;;
52848;SDS011;38714;53.180;5.812;2022-12-29T05:05:46;9.63;;;3.22;;
52848;SDS011;38714;53.180;5.812;2022-12-29T05:08:12;27.40;;;4.20;;
52848;SDS011;38714;53.180;5.812;2022-12-29T05:10:37;17.95;;;4.20;;
52848;SDS011;38714;53.180;5.812;2022-12-29T05:13:03;10.48;;;3.35;;
52848;SDS011;38714;53.180;5.812;2022-12-29T05:15:29;12.25;;;3.13;;
52848;SDS011;38714;53.180;5.812;2022-12-29T05:17:55;7.55;;;2.72;;
52848;SDS011;38714;53.180;5.812;2022-12-29T05:20:20;13.68;;;3.05;;
52848;SDS011;38714;53.180;5.812;2022-12-29T05:22:46;8.73;;;3.58;;
52848;SDS011;38714;53.180;5.812;2022-12-29T05:25:11;6.30;;;3.13;;
52848;SDS011;38714;53.180;5.812;2022-12-29T05:27:37;13.63;;;4.30;;
52848;SDS011;38714;53.180;5.812;2022-12-29T05:30:03;18.88;;;4.30;;
52848;SDS011;38714;53.180;5.812;2022-12-29T05:32:28;6.32;;;3.33;;
52848;SDS011;38714;53.180;5.812;2022-12-29T05:34:54;16.65;;;3.90;;
52848;SDS011;38714;53.180;5.812;2022-12-29T05:37:19;13.13;;;3.72;;
52848;SDS011;38714;53.180;5.812;2022-12-29T05:39:45;13.48;;;3.65;;
52848;SDS011;38714;53.180;5.812;2022-12-29T05:42:11;24.13;;;4.95;;
52848;SDS011;38714;53.180;5.812;2022-12-29T05:44:36;11.57;;;4.22;;
52848;SDS011;38714;53.180;5.812;2022-12-29T05:47:02;9.57;;;2.92;;
52848;SDS011;38714;53.180;5.812;2022-12-29T05:49:27;8.43;;;2.78;;
52848;SDS011;38714;53.180;5.812;2022-12-29T05:51:53;8.70;;;2.35;;
52848;SDS011;38714;53.180;5.812;2022-12-29T05:54:19;5.45;;;2.15;;
52848;SDS011;38714;53.180;5.812;2022-12-29T05:56:44;11.30;;;2.70;;
52848;SDS011;38714;53.180;5.812;2022-12-29T05:59:10;8.73;;;2.85;;
52848;SDS011;38714;53.180;5.812;2022-12-29T06:01:36;10.57;;;2.67;;
52848;SDS011;38714;53.180;5.812;2022-12-29T06:04:01;13.27;;;3.42;;
52848;SDS011;38714;53.180;5.812;2022-12-29T06:06:27;10.82;;;3.58;;
52848;SDS011;38714;53.180;5.812;2022-12-29T06:08:52;14.65;;;3.63;;
52848;SDS011;38714;53.180;5.812;2022-12-29T06:11:18;16.13;;;2.80;;
52848;SDS011;38714;53.180;5.812;2022-12-29T06:13:44;10.32;;;3.67;;
52848;SDS011;38714;53.180;5.812;2022-12-29T06:16:09;8.05;;;3.45;;
52848;SDS011;38714;53.180;5.812;2022-12-29T06:18:35;7.68;;;2.95;;
52848;SDS011;38714;53.180;5.812;2022-12-29T06:21:01;13.27;;;4.03;;
52848;SDS011;38714;53.180;5.812;2022-12-29T06:23:28;22.55;;;4.07;;
52848;SDS011;38714;53.180;5.812;2022-12-29T06:25:54;13.63;;;4.18;;
52848;SDS011;38714;53.180;5.812;2022-12-29T06:28:20;13.27;;;4.40;;
52848;SDS011;38714;53.180;5.812;2022-12-29T06:30:45;11.57;;;4.07;;
52848;SDS011;38714;53.180;5.812;2022-12-29T06:33:11;17.73;;;4.60;;
52848;SDS011;38714;53.180;5.812;2022-12-29T06:35:38;9.98;;;3.65;;
52848;SDS011;38714;53.180;5.812;2022-12-29T06:38:03;8.10;;;4.35;;
52848;SDS011;38714;53.180;5.812;2022-12-29T06:40:29;7.88;;;3.65;;
52848;SDS011;38714;53.180;5.812;2022-12-29T06:42:55;11.88;;;3.45;;
52848;SDS011;38714;53.180;5.812;2022-12-29T06:45:20;6.07;;;3.40;;
52848;SDS011;38714;53.180;5.812;2022-12-29T06:47:46;10.43;;;4.63;;
52848;SDS011;38714;53.180;5.812;2022-12-29T06:50:12;8.63;;;4.43;;
52848;SDS011;38714;53.180;5.812;2022-12-29T06:52:37;14.68;;;4.95;;
52848;SDS011;38714;53.180;5.812;2022-12-29T06:55:03;11.68;;;3.05;;
52848;SDS011;38714;53.180;5.812;2022-12-29T06:57:29;13.68;;;3.90;;
52848;SDS011;38714;53.180;5.812;2022-12-29T06:59:54;9.32;;;4.43;;
52848;SDS011;38714;53.180;5.812;2022-12-29T07:02:23;9.32;;;2.97;;
52848;SDS011;38714;53.180;5.812;2022-12-29T07:04:50;11.15;;;2.88;;
52848;SDS011;38714;53.180;5.812;2022-12-29T07:07:17;13.57;;;4.88;;
52848;SDS011;38714;53.180;5.812;2022-12-29T07:09:44;17.70;;;5.07;;
52848;SDS011;38714;53.180;5.812;2022-12-29T07:12:10;13.30;;;3.92;;
52848;SDS011;38714;53.180;5.812;2022-12-29T07:14:36;11.00;;;4.25;;
52848;SDS011;38714;53.180;5.812;2022-12-29T07:17:02;8.68;;;3.15;;
52848;SDS011;38714;53.180;5.812;2022-12-29T07:19:30;13.85;;;5.55;;
52848;SDS011;38714;53.180;5.812;2022-12-29T07:21:56;12.75;;;5.93;;
52848;SDS011;38714;53.180;5.812;2022-12-29T07:24:21;7.13;;;3.75;;
52848;SDS011;38714;53.180;5.812;2022-12-29T07:26:47;26.60;;;4.45;;
52848;SDS011;38714;53.180;5.812;2022-12-29T07:29:12;24.02;;;6.15;;
52848;SDS011;38714;53.180;5.812;2022-12-29T07:31:38;12.95;;;3.63;;
52848;SDS011;38714;53.180;5.812;2022-12-29T07:34:03;9.10;;;3.85;;
52848;SDS011;38714;53.180;5.812;2022-12-29T07:36:29;6.95;;;3.65;;
52848;SDS011;38714;53.180;5.812;2022-12-29T07:38:55;21.05;;;5.15;;
52848;SDS011;38714;53.180;5.812;2022-12-29T07:41:21;16.77;;;4.10;;
52848;SDS011;38714;53.180;5.812;2022-12-29T07:43:47;16.77;;;4.55;;
52848;SDS011;38714;53.180;5.812;2022-12-29T07:46:13;14.05;;;4.25;;
52848;SDS011;38714;53.180;5.812;2022-12-29T07:48:39;16.35;;;4.18;;
52848;SDS011;38714;53.180;5.812;2022-12-29T07:51:05;13.45;;;3.72;;
52848;SDS011;38714;53.180;5.812;2022-12-29T07:53:31;17.90;;;5.93;;
52848;SDS011;38714;53.180;5.812;2022-12-29T07:55:57;10.23;;;5.03;;
52848;SDS011;38714;53.180;5.812;2022-12-29T07:58:22;10.88;;;3.55;;
52848;SDS011;38714;53.180;5.812;2022-12-29T08:00:52;22.52;;;4.13;;
52848;SDS011;38714;53.180;5.812;2022-12-29T08:03:19;12.32;;;4.65;;
52848;SDS011;38714;53.180;5.812;2022-12-29T08:05:44;8.38;;;4.03;;
52848;SDS011;38714;53.180;5.812;2022-12-29T08:08:10;9.88;;;4.32;;
52848;SDS011;38714;53.180;5.812;2022-12-29T08:10:35;7.97;;;4.78;;
52848;SDS011;38714;53.180;5.812;2022-12-29T08:13:01;33.33;;;5.80;;
52848;SDS011;38714;53.180;5.812;2022-12-29T08:15:27;12.32;;;4.45;;
52848;SDS011;38714;53.180;5.812;2022-12-29T08:17:52;13.10;;;4.35;;
52848;SDS011;38714;53.180;5.812;2022-12-29T08:20:18;18.45;;;5.35;;
52848;SDS011;38714;53.180;5.812;2022-12-29T08:22:43;10.52;;;5.63;;
52848;SDS011;38714;53.180;5.812;2022-12-29T08:25:09;16.80;;;5.47;;
52848;SDS011;38714;53.180;5.812;2022-12-29T08:27:35;14.60;;;4.18;;
52848;SDS011;38714;53.180;5.812;2022-12-29T08:30:00;15.60;;;4.65;;
52848;SDS011;38714;53.180;5.812;2022-12-29T08:32:26;22.15;;;4.95;;
52848;SDS011;38714;53.180;5.812;2022-12-29T08:34:56;12.23;;;4.55;;
52848;SDS011;38714;53.180;5.812;2022-12-29T08:37:21;13.57;;;3.92;;
52848;SDS011;38714;53.180;5.812;2022-12-29T08:39:47;14.48;;;3.85;;
52848;SDS011;38714;53.180;5.812;2022-12-29T08:42:13;14.73;;;5.68;;
52848;SDS011;38714;53.180;5.812;2022-12-29T08:44:39;15.10;;;6.78;;
52848;SDS011;38714;53.180;5.812;2022-12-29T08:47:04;9.57;;;4.10;;
52848;SDS011;38714;53.180;5.812;2022-12-29T08:49:30;25.58;;;5.20;;
52848;SDS011;38714;53.180;5.812;2022-12-29T08:51:58;24.27;;;6.05;;
52848;SDS011;38714;53.180;5.812;2022-12-29T08:54:23;13.68;;;5.45;;
52848;SDS011;38714;53.180;5.812;2022-12-29T08:56:52;7.78;;;4.07;;
52848;SDS011;38714;53.180;5.812;2022-12-29T08:59:18;12.57;;;4.70;;
52848;SDS011;38714;53.180;5.812;2022-12-29T09:01:44;14.65;;;4.85;;
52848;SDS011;38714;53.180;5.812;2022-12-29T09:04:10;16.95;;;4.82;;
52848;SDS011;38714;53.180;5.812;2022-12-29T09:06:35;19.48;;;5.00;;
52848;SDS011;38714;53.180;5.812;2022-12-29T09:09:01;12.38;;;5.95;;
52848;SDS011;38714;53.180;5.812;2022-12-29T09:11:27;15.45;;;4.05;;
52848;SDS011;38714;53.180;5.812;2022-12-29T09:13:53;13.40;;;4.85;;
52848;SDS011;38714;53.180;5.812;2022-12-29T09:16:18;17.75;;;4.65;;
52848;SDS011;38714;53.180;5.812;2022-12-29T09:18:47;22.67;;;6.00;;
52848;SDS011;38714;53.180;5.812;2022-12-29T09:21:15;21.67;;;5.97;;
52848;SDS011;38714;53.180;5.812;2022-12-29T09:23:56;17.83;;;4.95;;
52848;SDS011;38714;53.180;5.812;2022-12-29T09:26:22;12.35;;;4.57;;
52848;SDS011;38714;53.180;5.812;2022-12-29T09:28:48;14.65;;;5.25;;
52848;SDS011;38714;53.180;5.812;2022-12-29T09:31:13;17.25;;;5.03;;
52848;SDS011;38714;53.180;5.812;2022-12-29T09:33:39;19.75;;;7.15;;
52848;SDS011;38714;53.180;5.812;2022-12-29T09:36:04;12.15;;;5.82;;
52848;SDS011;38714;53.180;5.812;2022-12-29T09:38:30;15.80;;;4.72;;
52848;SDS011;38714;53.180;5.812;2022-12-29T09:40:59;21.05;;;5.40;;
52848;SDS011;38714;53.180;5.812;2022-12-29T09:49:00;9.50;;;3.60;;
52848;SDS011;38714;53.180;5.812;2022-12-29T09:57:26;10.75;;;3.80;;
52848;SDS011;38714;53.180;5.812;2022-12-29T10:00:17;15.80;;;4.00;;
52848;SDS011;38714;53.180;5.812;2022-12-29T10:02:49;14.75;;;3.35;;
52848;SDS011;38714;53.180;5.812;2022-12-29T10:05:37;7.80;;;4.32;;
52848;SDS011;38714;53.180;5.812;2022-12-29T10:08:44;9.43;;;3.47;;
52848;SDS011;38714;53.180;5.812;2022-12-29T10:11:19;11.13;;;3.50;;
52848;SDS011;38714;53.180;5.812;2022-12-29T10:17:00;6.82;;;3.78;;
52848;SDS011;38714;53.180;5.812;2022-12-29T10:22:45;36.40;;;5.78;;
52848;SDS011;38714;53.180;5.812;2022-12-29T10:25:16;22.75;;;4.68;;
52848;SDS011;38714;53.180;5.812;2022-12-29T10:27:47;17.52;;;5.05;;
52848;SDS011;38714;53.180;5.812;2022-12-29T10:30:14;20.50;;;5.15;;
52848;SDS011;38714;53.180;5.812;2022-12-29T10:32:43;16.17;;;5.88;;
52848;SDS011;38714;53.180;5.812;2022-12-29T10:35:18;12.57;;;5.00;;
52848;SDS011;38714;53.180;5.812;2022-12-29T10:43:07;10.45;;;4.38;;
52848;SDS011;38714;53.180;5.812;2022-12-29T10:45:48;11.38;;;4.93;;
52848;SDS011;38714;53.180;5.812;2022-12-29T10:48:19;19.67;;;4.63;;
52848;SDS011;38714;53.180;5.812;2022-12-29T10:50:47;11.18;;;4.40;;
52848;SDS011;38714;53.180;5.812;2022-12-29T10:53:17;23.38;;;4.05;;
52848;SDS011;38714;53.180;5.812;2022-12-29T10:55:46;14.48;;;3.67;;
52848;SDS011;38714;53.180;5.812;2022-12-29T10:58:13;19.67;;;4.47;;
52848;SDS011;38714;53.180;5.812;2022-12-29T11:00:40;16.42;;;3.40;;
52848;SDS011;38714;53.180;5.812;2022-12-29T11:03:11;12.00;;;5.00;;
52848;SDS011;38714;53.180;5.812;2022-12-29T11:06:20;6.15;;;3.15;;
52848;SDS011;38714;53.180;5.812;2022-12-29T11:08:53;17.42;;;4.35;;
52848;SDS011;38714;53.180;5.812;2022-12-29T11:11:24;17.17;;;3.30;;
52848;SDS011;38714;53.180;5.812;2022-12-29T11:13:56;19.38;;;5.25;;
52848;SDS011;38714;53.180;5.812;2022-12-29T11:16:42;12.23;;;4.22;;
52848;SDS011;38714;53.180;5.812;2022-12-29T11:19:20;6.35;;;2.65;;
52848;SDS011;38714;53.180;5.812;2022-12-29T11:21:50;16.90;;;4.63;;
52848;SDS011;38714;53.180;5.812;2022-12-29T11:26:53;8.20;;;3.72;;
52848;SDS011;38714;53.180;5.812;2022-12-29T11:29:23;5.22;;;2.78;;
52848;SDS011;38714;53.180;5.812;2022-12-29T11:31:55;24.15;;;3.05;;
52848;SDS011;38714;53.180;5.812;2022-12-29T11:34:31;10.75;;;3.92;;
52848;SDS011;38714;53.180;5.812;2022-12-29T11:37:00;8.85;;;3.70;;
52848;SDS011;38714;53.180;5.812;2022-12-29T11:39:30;7.70;;;2.50;;
52848;SDS011;38714;53.180;5.812;2022-12-29T11:42:12;5.40;;;3.58;;
52848;SDS011;38714;53.180;5.812;2022-12-29T11:44:44;19.65;;;4.35;;
52848;SDS011;38714;53.180;5.812;2022-12-29T11:47:14;8.38;;;3.13;;
52848;SDS011;38714;53.180;5.812;2022-12-29T11:49:57;11.85;;;2.85;;
52848;SDS011;38714;53.180;5.812;2022-12-29T11:52:27;6.80;;;2.63;;
52848;SDS011;38714;53.180;5.812;2022-12-29T11:54:54;9.63;;;2.95;;
52848;SDS011;38714;53.180;5.812;2022-12-29T11:57:21;17.40;;;2.55;;
52848;SDS011;38714;53.180;5.812;2022-12-29T11:59:51;9.63;;;4.18;;
52848;SDS011;38714;53.180;5.812;2022-12-29T12:04:46;8.90;;;3.20;;
52848;SDS011;38714;53.180;5.812;2022-12-29T12:07:17;6.70;;;2.65;;
52848;SDS011;38714;53.180;5.812;2022-12-29T12:09:51;15.57;;;3.22;;
52848;SDS011;38714;53.180;5.812;2022-12-29T12:12:28;18.63;;;3.05;;
52848;SDS011;38714;53.180;5.812;2022-12-29T12:14:59;10.70;;;1.58;;
52848;SDS011;38714;53.180;5.812;2022-12-29T12:17:31;4.43;;;1.42;;
52848;SDS011;38714;53.180;5.812;2022-12-29T12:25:03;15.07;;;3.10;;
52848;SDS011;38714;53.180;5.812;2022-12-29T12:27:37;7.00;;;1.80;;
52848;SDS011;38714;53.180;5.812;2022-12-29T12:30:21;4.15;;;1.73;;
52848;SDS011;38714;53.180;5.812;2022-12-29T12:32:50;5.45;;;2.28;;
52848;SDS011;38714;53.180;5.812;2022-12-29T12:35:39;4.72;;;1.75;;
52848;SDS011;38714;53.180;5.812;2022-12-29T12:38:34;8.35;;;2.05;;
52848;SDS011;38714;53.180;5.812;2022-12-29T12:41:15;7.40;;;1.75;;
52848;SDS011;38714;53.180;5.812;2022-12-29T12:44:12;18.50;;;2.63;;
52848;SDS011;38714;53.180;5.812;2022-12-29T13:00:14;5.45;;;2.08;;
52848;SDS011;38714;53.180;5.812;2022-12-29T13:02:49;5.15;;;3.10;;
52848;SDS011;38714;53.180;5.812;2022-12-29T13:21:40;5.25;;;2.85;;
52848;SDS011;38714;53.180;5.812;2022-12-29T13:29:52;6.50;;;2.53;;
52848;SDS011;38714;53.180;5.812;2022-12-29T13:35:31;6.47;;;1.90;;
52848;SDS011;38714;53.180;5.812;2022-12-29T13:44:01;9.75;;;1.98;;
52848;SDS011;38714;53.180;5.812;2022-12-29T13:46:30;13.60;;;3.05;;
52848;SDS011;38714;53.180;5.812;2022-12-29T13:49:08;10.10;;;2.55;;
52848;SDS011;38714;53.180;5.812;2022-12-29T13:51:51;6.65;;;3.13;;
52848;SDS011;38714;53.180;5.812;2022-12-29T13:57:12;3.17;;;1.38;;
52848;SDS011;38714;53.180;5.812;2022-12-29T14:00:02;10.43;;;2.38;;
52848;SDS011;38714;53.180;5.812;2022-12-29T14:07:45;9.55;;;2.30;;
52848;SDS011;38714;53.180;5.812;2022-12-29T14:10:34;4.03;;;1.90;;
52848;SDS011;38714;53.180;5.812;2022-12-29T14:13:18;6.80;;;2.20;;
52848;SDS011;38714;53.180;5.812;2022-12-29T14:15:56;4.38;;;1.70;;
52848;SDS011;38714;53.180;5.812;2022-12-29T14:18:27;8.80;;;3.72;;
52848;SDS011;38714;53.180;5.812;2022-12-29T14:21:09;8.50;;;2.47;;
52848;SDS011;38714;53.180;5.812;2022-12-29T14:23:44;9.43;;;2.88;;
52848;SDS011;38714;53.180;5.812;2022-12-29T14:26:34;7.82;;;2.28;;
52848;SDS011;38714;53.180;5.812;2022-12-29T14:29:15;5.38;;;2.90;;
52848;SDS011;38714;53.180;5.812;2022-12-29T14:31:46;4.10;;;2.25;;
52848;SDS011;38714;53.180;5.812;2022-12-29T14:39:30;9.00;;;3.17;;
52848;SDS011;38714;53.180;5.812;2022-12-29T14:42:03;6.10;;;2.08;;
52848;SDS011;38714;53.180;5.812;2022-12-29T14:47:26;6.43;;;2.97;;
52848;SDS011;38714;53.180;5.812;2022-12-29T14:49:55;3.97;;;1.90;;
52848;SDS011;38714;53.180;5.812;2022-12-29T14:52:29;2.58;;;1.33;;
52848;SDS011;38714;53.180;5.812;2022-12-29T14:55:26;8.90;;;2.63;;
52848;SDS011;38714;53.180;5.812;2022-12-29T14:58:00;8.50;;;3.13;;
52848;SDS011;38714;53.180;5.812;2022-12-29T15:00:29;5.18;;;2.28;;
52848;SDS011;38714;53.180;5.812;2022-12-29T15:03:05;14.52;;;3.42;;
52848;SDS011;38714;53.180;5.812;2022-12-29T15:08:20;10.50;;;3.72;;
52848;SDS011;38714;53.180;5.812;2022-12-29T15:11:12;14.60;;;3.40;;
52848;SDS011;38714;53.180;5.812;2022-12-29T15:13:41;9.63;;;3.65;;
52848;SDS011;38714;53.180;5.812;2022-12-29T15:16:24;10.27;;;2.90;;
52848;SDS011;38714;53.180;5.812;2022-12-29T15:18:53;9.25;;;2.50;;
52848;SDS011;38714;53.180;5.812;2022-12-29T15:21:24;5.07;;;2.17;;
52848;SDS011;38714;53.180;5.812;2022-12-29T15:23:51;7.70;;;3.67;;
52848;SDS011;38714;53.180;5.812;2022-12-29T15:26:17;11.50;;;4.13;;
52848;SDS011;38714;53.180;5.812;2022-12-29T15:28:51;10.50;;;3.15;;
52848;SDS011;38714;53.180;5.812;2022-12-29T15:31:23;12.73;;;3.53;;
52848;SDS011;38714;53.180;5.812;2022-12-29T15:33:51;9.57;;;2.90;;
52848;SDS011;38714;53.180;5.812;2022-12-29T15:36:21;10.25;;;3.15;;
52848;SDS011;38714;53.180;5.812;2022-12-29T15:44:36;7.75;;;2.83;;
52848;SDS011;38714;53.180;5.812;2022-12-29T15:47:04;15.60;;;3.30;;
52848;SDS011;38714;53.180;5.812;2022-12-29T15:49:33;2.38;;;2.17;;
52848;SDS011;38714;53.180;5.812;2022-12-29T15:52:00;2.00;;;1.75;;
52848;SDS011;38714;53.180;5.812;2022-12-29T15:54:33;3.75;;;2.30;;
52848;SDS011;38714;53.180;5.812;2022-12-29T15:56:59;3.03;;;1.63;;
52848;SDS011;38714;53.180;5.812;2022-12-29T15:59:29;4.47;;;1.00;;
52848;SDS011;38714;53.180;5.812;2022-12-29T16:01:59;4.13;;;1.85;;
52848;SDS011;38714;53.180;5.812;2022-12-29T16:04:27;3.60;;;1.73;;
52848;SDS011;38714;53.180;5.812;2022-12-29T16:06:59;6.60;;;1.95;;
52848;SDS011;38714;53.180;5.812;2022-12-29T16:12:06;5.30;;;2.08;;
52848;SDS011;38714;53.180;5.812;2022-12-29T16:14:45;2.40;;;1.15;;
52848;SDS011;38714;53.180;5.812;2022-12-29T16:17:14;2.17;;;1.92;;
52848;SDS011;38714;53.180;5.812;2022-12-29T16:19:48;3.80;;;2.88;;
52848;SDS011;38714;53.180;5.812;2022-12-29T16:22:23;8.98;;;2.22;;
52848;SDS011;38714;53.180;5.812;2022-12-29T16:24:54;7.53;;;2.65;;
52848;SDS011;38714;53.180;5.812;2022-12-29T16:27:25;8.68;;;2.25;;
52848;SDS011;38714;53.180;5.812;2022-12-29T16:29:54;7.78;;;4.60;;
52848;SDS011;38714;53.180;5.812;2022-12-29T16:32:30;3.25;;;1.67;;
52848;SDS011;38714;53.180;5.812;2022-12-29T16:35:16;4.93;;;2.63;;
52848;SDS011;38714;53.180;5.812;2022-12-29T16:37:45;14.55;;;3.38;;
52848;SDS011;38714;53.180;5.812;2022-12-29T16:50:33;9.60;;;3.60;;
52848;SDS011;38714;53.180;5.812;2022-12-29T16:53:00;7.22;;;3.63;;
52848;SDS011;38714;53.180;5.812;2022-12-29T16:55:28;23.88;;;4.35;;
52848;SDS011;38714;53.180;5.812;2022-12-29T16:57:54;9.15;;;3.17;;
52848;SDS011;38714;53.180;5.812;2022-12-29T17:00:28;7.60;;;3.28;;
52848;SDS011;38714;53.180;5.812;2022-12-29T17:02:59;13.00;;;4.47;;
52848;SDS011;38714;53.180;5.812;2022-12-29T17:05:26;14.13;;;3.83;;
52848;SDS011;38714;53.180;5.812;2022-12-29T17:07:51;8.02;;;3.85;;
52848;SDS011;38714;53.180;5.812;2022-12-29T17:10:17;14.40;;;4.72;;
52848;SDS011;38714;53.180;5.812;2022-12-29T17:12:43;17.63;;;3.05;;
52848;SDS011;38714;53.180;5.812;2022-12-29T17:15:15;10.77;;;5.20;;
52848;SDS011;38714;53.180;5.812;2022-12-29T17:17:53;11.15;;;4.57;;
52848;SDS011;38714;53.180;5.812;2022-12-29T17:20:21;7.30;;;2.70;;